East Palestine, Ohio
Current Conditions -  °F | °C
As of 8:47 PM on Thursday 20 Nov 2014 (Local Time) from KBVI Reporting Station
Light Snow Light Snow  
Wind Chill: 13°   Ceiling: 6000
Heat Index: 23°   Visibility: 10mi
Dew Point: 14°   Wind: 9mph
Humidity: 68%   Direction: 260°W
Pressure: 30.08"   Gusts: 20mph
Location:  40.83°N, 80.54°W
Report Text: KBVI 210147Z 26008G17KT 10SM -SN SCT011 SCT021 OVC060 M05/M10 A3008 RMK LAST
Loading
Personal Weather Stations






























Interactive Weather Map New forecast layout! Learn more

10-Day Weather Forecast

Advertisements
Track Severe Weather on mobile